Skip Navigation Links Skip Navigation Links

Current Weather

Heathrow, London

For information only: do not use for flight planning or navigation.
Latest weather
Observation time Saturday, September 22, 2018 4:20 PM BST
Local time Saturday, September 22, 2018 4:58 PM BST
Flight conditions Marginal Visual Meteorological Conditions
Winds
Wind direction East (100°)
Wind speed 7 mph
Visibility 3.7 mi.
Present weather light rain
Sky condition
Ceiling 2,400 ft. broken clouds
Cloud layer scattered clouds 1,300 ft.
Cloud layer broken clouds 2,400 ft.
Cloud layer broken clouds 4,000 ft.
Temperature 52°F
Dewpoint 50°F
Altimeter 30.03 in.Hg
Derived measurements
Relative humidity 94%
Density altitude -431 ft.
Remarks
Fully automated report.
No significant changes expected in the next two hours.
METAR EGLL 221520Z AUTO 10006KT 6000 -RA SCT013 BKN024 BKN040 11/10 Q1017 NOSIG

Settings

Location code

InnerDrive.Weather 4.0.6770.0 Release CLR 4.0.30319.42000
Copyright ©2018 Inner Drive Technology. All rights reserved. Portions Copyright ©1986-2018 David Braverman.

Find weather

Site navigation


Skip Navigation Links

Place info

Page info

PayPal - The safer, easier way to pay online!

Return home.

Copyright ©2018 Inner Drive Technology. Purveyors of fine, hand-crafted computer software. Page printed 2018-09-22T15:58:25 UTC.